createdAt,value
2023-04-25T00:00:59.708Z,2.5000
2023-04-25T00:02:07.828Z,2.6643
2023-04-25T00:03:15.996Z,2.5143
2023-04-25T00:04:24.225Z,2.5214
2023-04-25T00:05:31.993Z,2.4643
2023-04-25T00:06:40.044Z,2.7643
2023-04-25T00:07:48.076Z,2.2857
2023-04-25T00:08:56.219Z,2.2429
2023-04-25T00:10:04.217Z,2.0857
2023-04-25T00:11:12.136Z,2.1500
2023-04-25T00:12:20.194Z,2.4643
2023-04-25T00:13:28.287Z,2.3643
2023-04-25T00:14:36.520Z,2.2429
2023-04-25T00:15:44.533Z,2.3286
2023-04-25T00:16:52.623Z,2.1786
2023-04-25T00:18:00.793Z,2.1000
2023-04-25T00:19:08.662Z,2.0571
2023-04-25T00:20:16.827Z,2.1071
2023-04-25T00:21:24.873Z,2.1000
2023-04-25T00:22:32.902Z,2.5000
2023-04-25T00:23:41.125Z,2.4143
2023-04-25T00:24:49.035Z,2.4071
2023-04-25T00:25:57.006Z,2.4571
2023-04-25T00:27:05.017Z,2.5857
2023-04-25T00:28:13.086Z,2.5143
2023-04-25T00:29:21.371Z,2.4714
2023-04-25T00:30:29.310Z,2.4214
2023-04-25T00:31:37.432Z,2.5786
2023-04-25T00:32:45.590Z,2.3571
2023-04-25T00:33:53.647Z,2.4214
2023-04-25T00:35:01.551Z,2.3571
2023-04-25T00:36:09.685Z,2.4286
2023-04-25T00:37:17.701Z,2.4214
2023-04-25T00:38:25.750Z,2.5500
2023-04-25T00:39:33.820Z,2.2429
2023-04-25T00:40:41.745Z,2.4857
2023-04-25T00:41:50.711Z,2.3214
2023-04-25T00:42:57.877Z,2.3643
2023-04-25T00:44:06.158Z,2.4571
2023-04-25T00:45:14.221Z,2.3286
2023-04-25T00:46:22.220Z,2.2643
2023-04-25T00:47:30.317Z,2.1857
2023-04-25T00:48:38.313Z,2.1786
2023-04-25T00:49:46.335Z,2.1929
2023-04-25T00:50:54.464Z,2.3286
2023-04-25T00:52:02.630Z,2.2500
2023-04-25T00:53:10.603Z,2.2286
2023-04-25T00:54:18.660Z,2.1714
2023-04-25T00:55:26.519Z,2.2786
2023-04-25T00:56:34.579Z,2.1071
2023-04-25T00:57:42.674Z,2.2429
2023-04-25T00:58:50.824Z,2.3857
2023-04-25T00:59:58.885Z,2.3357
2023-04-25T01:01:06.966Z,2.4143
2023-04-25T01:02:15.118Z,2.0929
2023-04-25T01:03:23.475Z,2.1929
2023-04-25T01:04:31.185Z,2.5571
2023-04-25T01:05:39.266Z,2.3143
2023-04-25T01:06:47.237Z,2.3571
2023-04-25T01:07:55.430Z,2.4357
2023-04-25T01:09:03.487Z,2.2357
2023-04-25T01:10:11.307Z,2.4500
2023-04-25T01:11:19.381Z,2.4214
2023-04-25T01:12:27.462Z,2.5357
2023-04-25T01:13:35.585Z,2.6786
2023-04-25T01:14:43.752Z,2.5143
2023-04-25T01:15:51.726Z,2.3429
2023-04-25T01:16:59.923Z,2.3714
2023-04-25T01:18:07.953Z,2.4786
2023-04-25T01:19:15.922Z,2.5357
2023-04-25T01:20:24.112Z,2.6571
2023-04-25T01:21:32.053Z,2.7500
2023-04-25T01:22:40.128Z,2.5786
2023-04-25T01:23:48.377Z,2.5143
2023-04-25T01:24:56.167Z,2.4643
2023-04-25T01:26:04.212Z,2.2786
2023-04-25T01:27:12.260Z,2.5571
2023-04-25T01:28:20.462Z,2.4071
2023-04-25T01:29:28.508Z,2.2429
2023-04-25T01:30:36.555Z,2.8000
2023-04-25T01:31:44.667Z,2.5214
2023-04-25T01:32:52.685Z,2.4786
2023-04-25T01:34:00.754Z,2.5357
2023-04-25T01:35:08.863Z,2.3571
2023-04-25T01:36:16.935Z,2.3286
2023-04-25T01:37:24.917Z,2.6143
2023-04-25T01:38:33.030Z,2.4714
2023-04-25T01:39:40.892Z,2.5500
2023-04-25T01:40:48.974Z,2.7571
2023-04-25T01:41:57.669Z,2.5286
2023-04-25T01:43:05.220Z,2.5071
2023-04-25T01:44:13.287Z,2.5357
2023-04-25T01:45:21.366Z,2.4429
2023-04-25T01:46:29.391Z,2.6071
2023-04-25T01:47:37.554Z,2.5571
2023-04-25T01:48:45.555Z,2.4286
2023-04-25T01:49:53.662Z,2.6000
2023-04-25T01:51:01.665Z,2.6571
2023-04-25T01:52:09.706Z,2.6571
2023-04-25T01:53:17.885Z,2.6857
2023-04-25T01:54:25.732Z,2.4714
2023-04-25T01:55:33.779Z,2.4643
2023-04-25T01:56:41.833Z,2.4500
2023-04-25T01:57:50.169Z,2.5000
2023-04-25T01:58:58.150Z,2.3357
2023-04-25T02:00:06.190Z,2.3786
2023-04-25T02:01:14.260Z,2.7143
2023-04-25T02:02:22.400Z,2.5500
2023-04-25T02:03:30.497Z,2.8786
2023-04-25T02:04:38.722Z,2.5143
2023-04-25T02:05:46.489Z,2.5286
2023-04-25T02:06:54.525Z,2.7071
2023-04-25T02:08:02.658Z,2.7143
2023-04-25T02:09:10.522Z,2.7000
2023-04-25T02:10:18.664Z,2.3857
2023-04-25T02:11:26.703Z,2.7857
2023-04-25T02:12:34.937Z,2.4214
2023-04-25T02:13:43.255Z,2.5500
2023-04-25T02:14:50.996Z,2.7571
2023-04-25T02:15:59.208Z,2.6143
2023-04-25T02:17:07.236Z,2.9214
2023-04-25T02:18:15.268Z,2.6357
2023-04-25T02:19:23.256Z,2.7214
2023-04-25T02:20:31.451Z,2.6714
2023-04-25T02:21:39.384Z,2.5857
2023-04-25T02:22:47.420Z,2.5071
2023-04-25T02:23:55.381Z,2.3071
2023-04-25T02:25:03.442Z,2.6929
2023-04-25T02:26:11.505Z,2.6429
2023-04-25T02:27:19.696Z,2.7286
2023-04-25T02:28:27.750Z,2.3857
2023-04-25T02:29:35.950Z,2.4714
2023-04-25T02:30:43.905Z,2.5571
2023-04-25T02:31:51.935Z,2.5929
2023-04-25T02:33:00.038Z,2.7857
2023-04-25T02:34:08.058Z,2.5714
2023-04-25T02:35:16.070Z,2.5000
2023-04-25T02:36:24.172Z,2.4071
2023-04-25T02:37:32.406Z,2.2429
2023-04-25T02:38:40.163Z,2.8143
2023-04-25T02:39:48.188Z,2.7429
2023-04-25T02:40:56.247Z,2.5286
2023-04-25T02:42:04.430Z,2.7357
2023-04-25T02:43:12.564Z,2.7714
2023-04-25T02:44:20.594Z,2.6786
2023-04-25T02:45:28.728Z,2.4786
2023-04-25T02:46:39.510Z,2.7786
2023-04-25T02:47:49.625Z,2.4200
2023-04-25T02:48:57.755Z,2.6429
2023-04-25T02:50:05.732Z,2.4857
2023-04-25T02:51:13.779Z,2.4429
2023-04-25T02:52:21.696Z,2.6429
2023-04-25T02:53:29.753Z,2.7000
2023-04-25T02:54:37.821Z,2.6857
2023-04-25T02:55:46.026Z,2.5500
2023-04-25T02:56:54.045Z,2.6500
2023-04-25T02:58:02.079Z,2.7429
2023-04-25T02:59:10.157Z,2.6786
2023-04-25T03:00:18.268Z,2.7857
2023-04-25T03:01:26.474Z,2.4357
2023-04-25T03:02:34.377Z,2.5857
2023-04-25T03:03:42.440Z,2.3357
2023-04-25T03:04:50.490Z,2.6143
2023-04-25T03:05:58.495Z,2.3786
2023-04-25T03:07:06.432Z,2.4929
2023-04-25T03:08:14.499Z,2.3286
2023-04-25T03:09:22.528Z,2.3429
2023-04-25T03:10:30.752Z,2.3857
2023-04-25T03:11:38.843Z,2.5429
2023-04-25T03:12:46.865Z,2.4071
2023-04-25T03:13:54.928Z,2.3714
2023-04-25T03:15:02.986Z,2.6429
2023-04-25T03:16:11.127Z,2.6071
2023-04-25T03:17:19.266Z,2.6071
2023-04-25T03:18:27.151Z,2.4286
2023-04-25T03:19:35.230Z,2.8214
2023-04-25T03:20:43.289Z,2.4786
2023-04-25T03:21:51.204Z,2.5857
2023-04-25T03:22:59.294Z,2.5214
2023-04-25T03:24:07.357Z,2.5786
2023-04-25T03:25:15.592Z,2.7357
2023-04-25T03:26:23.588Z,2.5429
2023-04-25T03:27:31.632Z,2.8643
2023-04-25T03:28:39.603Z,2.8071
2023-04-25T03:29:47.734Z,2.7071
2023-04-25T03:30:55.785Z,2.6786
2023-04-25T03:32:03.950Z,2.5000
2023-04-25T03:33:12.145Z,2.4786
2023-04-25T03:34:20.185Z,2.5500
2023-04-25T03:35:28.072Z,2.4714
2023-04-25T03:36:35.971Z,2.5214
2023-04-25T03:37:44.056Z,2.4500
2023-04-25T03:38:52.172Z,2.5929
2023-04-25T03:40:00.383Z,2.5571
2023-04-25T03:41:08.420Z,2.7214
2023-04-25T03:42:16.431Z,2.7000
2023-04-25T03:43:24.564Z,2.3214
2023-04-25T03:44:32.570Z,2.6214
2023-04-25T03:45:40.661Z,2.4571
2023-04-25T03:46:48.720Z,2.5714
2023-04-25T03:47:56.856Z,2.7071
2023-04-25T03:49:04.848Z,2.6000
2023-04-25T03:50:12.874Z,2.6571
2023-04-25T03:51:20.805Z,2.7357
2023-04-25T03:52:28.898Z,2.7571
2023-04-25T03:53:36.944Z,2.7857
2023-04-25T03:54:45.169Z,2.6643
2023-04-25T03:55:53.178Z,2.3857
2023-04-25T03:57:01.228Z,2.7500
2023-04-25T03:58:09.412Z,2.6857
2023-04-25T03:59:17.357Z,2.9643
2023-04-25T04:00:25.391Z,2.8357
2023-04-25T04:01:33.478Z,2.7786
2023-04-25T04:02:43.954Z,2.6643
2023-04-25T04:03:54.985Z,2.5867
2023-04-25T04:05:02.643Z,2.6286
2023-04-25T04:06:10.454Z,2.5714
2023-04-25T04:07:18.540Z,2.6929
2023-04-25T04:08:26.678Z,2.6071
2023-04-25T04:09:34.799Z,2.7000
2023-04-25T04:10:42.957Z,2.6786
2023-04-25T04:11:50.826Z,2.5500
2023-04-25T04:12:58.882Z,2.6929
2023-04-25T04:14:07.091Z,2.6714
2023-04-25T04:15:15.042Z,2.5643
2023-04-25T04:16:23.199Z,2.5714
2023-04-25T04:17:31.310Z,2.6571
2023-04-25T04:18:39.226Z,2.8929
2023-04-25T04:19:47.212Z,2.9143
2023-04-25T04:20:55.256Z,2.8500
2023-04-25T04:22:03.316Z,2.8929
2023-04-25T04:23:11.512Z,3.0357
2023-04-25T04:24:19.579Z,3.0929
2023-04-25T04:25:27.684Z,3.0429
2023-04-25T04:26:35.642Z,3.0500
2023-04-25T04:27:43.677Z,2.9643
2023-04-25T04:28:51.784Z,3.1071
2023-04-25T04:29:59.925Z,3.1643
2023-04-25T04:31:08.005Z,3.2357
2023-04-25T04:32:16.049Z,3.4071
2023-04-25T04:33:23.995Z,3.3071
2023-04-25T04:34:32.004Z,3.4000
2023-04-25T04:35:40.066Z,3.1500
2023-04-25T04:36:48.126Z,3.1214
2023-04-25T04:37:56.328Z,3.0357
2023-04-25T04:39:04.415Z,2.8071
2023-04-25T04:40:12.423Z,3.0143
2023-04-25T04:41:20.461Z,3.2429
2023-04-25T04:42:28.514Z,2.9286
2023-04-25T04:43:36.623Z,3.1071
2023-04-25T04:44:44.706Z,3.2357
2023-04-25T04:45:52.723Z,3.0143
2023-04-25T04:47:01.233Z,3.0643
2023-04-25T04:48:08.786Z,3.3786
2023-04-25T04:49:16.798Z,3.2000
2023-04-25T04:50:24.871Z,3.5286
2023-04-25T04:51:33.007Z,3.2286
2023-04-25T04:52:41.244Z,3.2143
2023-04-25T04:53:49.407Z,3.1143
2023-04-25T04:54:57.346Z,2.9714
2023-04-25T04:56:05.260Z,3.0429
2023-04-25T04:57:13.304Z,3.0643
2023-04-25T04:58:21.411Z,2.9643
2023-04-25T04:59:29.431Z,3.4071
2023-04-25T05:00:37.500Z,3.1071
2023-04-25T05:01:45.706Z,3.1071
2023-04-25T05:02:53.687Z,4.1500
2023-04-25T05:04:02.346Z,3.6429
2023-04-25T05:05:09.675Z,3.3571
2023-04-25T05:06:17.873Z,3.5214
2023-04-25T05:07:25.951Z,3.7643
2023-04-25T05:08:33.993Z,3.3071
2023-04-25T05:09:42.045Z,2.7929
2023-04-25T05:10:50.232Z,3.1786
2023-04-25T05:11:58.165Z,3.4929
2023-04-25T05:13:06.217Z,3.4000
2023-04-25T05:14:14.436Z,3.4000
2023-04-25T05:15:22.398Z,2.8643
2023-04-25T05:16:30.530Z,2.9929
2023-04-25T05:17:38.455Z,2.9571
2023-04-25T05:18:46.411Z,2.9714
2023-04-25T05:19:54.567Z,2.8929
2023-04-25T05:21:02.640Z,3.0929
2023-04-25T05:22:10.697Z,3.4643
2023-04-25T05:23:18.761Z,3.4571
2023-04-25T05:24:26.900Z,3.6214
2023-04-25T05:25:34.967Z,3.3143
2023-04-25T05:26:43.064Z,3.4786
2023-04-25T05:27:50.970Z,3.0357
2023-04-25T05:28:59.101Z,2.5571
2023-04-25T05:30:07.151Z,2.8143
2023-04-25T05:31:15.216Z,2.3929
2023-04-25T05:32:23.183Z,2.5571
2023-04-25T05:33:31.200Z,3.0357
2023-04-25T05:34:39.238Z,2.9643
2023-04-25T05:35:47.414Z,2.6643
2023-04-25T05:36:55.519Z,2.9929
2023-04-25T05:38:03.562Z,2.6786
2023-04-25T05:39:11.682Z,2.8286
2023-04-25T05:40:19.593Z,2.9500
2023-04-25T05:41:27.789Z,2.4714
2023-04-25T05:42:35.880Z,3.0429
2023-04-25T05:43:43.696Z,2.7071
2023-04-25T05:44:51.855Z,2.5643
2023-04-25T05:45:59.865Z,2.7143
2023-04-25T05:47:07.858Z,2.7500
2023-04-25T05:48:15.958Z,2.8429
2023-04-25T05:49:23.976Z,2.4857
2023-04-25T05:50:32.155Z,2.3429
2023-04-25T05:51:40.247Z,2.4786
2023-04-25T05:52:48.507Z,2.2429
2023-04-25T05:53:56.508Z,1.9429
2023-04-25T05:55:04.387Z,2.0857
2023-04-25T05:56:12.475Z,2.1286
2023-04-25T05:57:20.537Z,2.3071
2023-04-25T05:58:28.687Z,2.3143
2023-04-25T05:59:36.679Z,2.2643
2023-04-25T06:00:44.804Z,2.2143
2023-04-25T06:01:52.712Z,2.3286
2023-04-25T06:03:00.866Z,2.2214
2023-04-25T06:04:08.893Z,2.2643
2023-04-25T06:05:16.951Z,2.4857
2023-04-25T06:06:24.893Z,2.3857
2023-04-25T06:07:33.113Z,2.3071
2023-04-25T06:08:41.166Z,2.2429
2023-04-25T06:09:49.169Z,2.2571
2023-04-25T06:10:57.359Z,2.0929
2023-04-25T06:12:05.327Z,2.0786
2023-04-25T06:13:13.362Z,1.7500
2023-04-25T06:14:21.533Z,2.0786
2023-04-25T06:15:29.497Z,2.1071
2023-04-25T06:16:37.436Z,2.1071
2023-04-25T06:17:45.596Z,1.9571
2023-04-25T06:18:53.625Z,1.8857
2023-04-25T06:20:01.919Z,1.9143
2023-04-25T06:21:09.913Z,2.1071
2023-04-25T06:22:17.982Z,2.3357
2023-04-25T06:23:25.957Z,2.2500
2023-04-25T06:24:33.987Z,2.4143
2023-04-25T06:25:42.144Z,2.6500
2023-04-25T06:26:50.392Z,2.5143
2023-04-25T06:27:58.185Z,2.5357
2023-04-25T06:29:06.337Z,2.4786
2023-04-25T06:30:14.363Z,2.6357
2023-04-25T06:31:22.340Z,2.5500
2023-04-25T06:32:30.383Z,2.4857
2023-04-25T06:33:38.415Z,2.6857
2023-04-25T06:34:46.437Z,2.5714
2023-04-25T06:35:54.581Z,2.6571
2023-04-25T06:37:02.580Z,2.6429
2023-04-25T06:38:11.006Z,2.9071
2023-04-25T06:39:18.822Z,2.4143
2023-04-25T06:40:26.989Z,2.5000
2023-04-25T06:41:34.954Z,2.5571
2023-04-25T06:42:43.032Z,2.4357
2023-04-25T06:43:51.158Z,2.6286
2023-04-25T06:44:59.186Z,2.4643
2023-04-25T06:46:07.114Z,2.5643
2023-04-25T06:47:15.150Z,2.5214
2023-04-25T06:48:23.218Z,2.4929
2023-04-25T06:49:31.610Z,2.3286
2023-04-25T06:50:39.468Z,2.6500
2023-04-25T06:51:47.556Z,2.5929
2023-04-25T06:52:55.610Z,2.6286
2023-04-25T06:54:03.675Z,2.4786
2023-04-25T06:55:11.757Z,2.4286
2023-04-25T06:56:19.802Z,2.4500
2023-04-25T06:57:27.864Z,2.5857
2023-04-25T06:58:35.921Z,2.5071
2023-04-25T06:59:43.990Z,2.6500
2023-04-25T07:00:52.005Z,2.3929
2023-04-25T07:01:59.972Z,2.4000
2023-04-25T07:03:08.178Z,2.7143
2023-04-25T07:04:16.370Z,2.1929
2023-04-25T07:05:24.464Z,2.4286
2023-04-25T07:06:32.460Z,2.6714
2023-04-25T07:07:40.489Z,2.4286
2023-04-25T07:08:48.733Z,2.2500
2023-04-25T07:09:56.514Z,2.2071
2023-04-25T07:11:04.624Z,2.5786
2023-04-25T07:12:12.822Z,2.2857
2023-04-25T07:13:20.742Z,2.2286
2023-04-25T07:14:28.789Z,1.9571
2023-04-25T07:15:36.699Z,1.6071
2023-04-25T07:16:44.830Z,2.0286
2023-04-25T07:17:52.952Z,1.8214
2023-04-25T07:19:01.010Z,1.8000
2023-04-25T07:20:09.057Z,1.6857
2023-04-25T07:21:17.319Z,1.3357
2023-04-25T07:22:25.182Z,1.2786
2023-04-25T07:23:33.375Z,1.4143
2023-04-25T07:24:41.503Z,1.4286
2023-04-25T07:25:49.340Z,1.4857
2023-04-25T07:26:57.392Z,1.4786
2023-04-25T07:28:05.733Z,1.4571
2023-04-25T07:29:13.460Z,1.4786
2023-04-25T07:30:21.501Z,1.5571
2023-04-25T07:31:29.595Z,1.5000
2023-04-25T07:32:37.826Z,1.5143
2023-04-25T07:33:45.810Z,1.4857
2023-04-25T07:34:53.909Z,1.2857
2023-04-25T07:36:02.009Z,1.4643
2023-04-25T07:37:09.971Z,1.5714
2023-04-25T07:38:18.018Z,1.6643
2023-04-25T07:39:26.325Z,1.4429
2023-04-25T07:40:34.195Z,1.6214
2023-04-25T07:41:42.247Z,1.6286
2023-04-25T07:42:50.277Z,1.6214
2023-04-25T07:43:58.225Z,1.7714
2023-04-25T07:45:06.288Z,1.6786
2023-04-25T07:46:14.479Z,1.7357
2023-04-25T07:47:22.535Z,1.5857
2023-04-25T07:48:30.582Z,1.5286
2023-04-25T07:49:38.626Z,1.7571
2023-04-25T07:50:46.707Z,1.8714
2023-04-25T07:51:54.720Z,1.8857
2023-04-25T07:53:02.886Z,2.0000
2023-04-25T07:54:11.043Z,1.9286
2023-04-25T07:55:18.941Z,1.9429
2023-04-25T07:56:27.048Z,1.8500
2023-04-25T07:57:35.114Z,1.7786
2023-04-25T07:58:42.986Z,1.6071
2023-04-25T07:59:51.074Z,1.8143
2023-04-25T08:00:59.132Z,1.6786
2023-04-25T08:02:07.466Z,1.8714
2023-04-25T08:03:15.686Z,1.7571
2023-04-25T08:04:23.575Z,1.7071
2023-04-25T08:05:31.551Z,1.8143
2023-04-25T08:06:39.589Z,2.2286
2023-04-25T08:07:47.653Z,1.8429
2023-04-25T08:08:55.829Z,1.7214
2023-04-25T08:10:03.758Z,1.7286
2023-04-25T08:11:11.852Z,1.8000
2023-04-25T08:12:20.632Z,1.7214
2023-04-25T08:13:32.684Z,1.6933
2023-04-25T08:14:40.703Z,1.7429
2023-04-25T08:15:48.804Z,1.7286
2023-04-25T08:16:57.006Z,1.8000
2023-04-25T08:18:05.213Z,1.8571
2023-04-25T08:19:13.086Z,1.8286
2023-04-25T08:20:21.189Z,1.8143
2023-04-25T08:21:29.169Z,2.0000
2023-04-25T08:22:37.226Z,1.7000
2023-04-25T08:23:45.480Z,1.6000
2023-04-25T08:24:53.536Z,1.6357
2023-04-25T08:26:01.450Z,1.6357
2023-04-25T08:27:09.520Z,1.5929
2023-04-25T08:28:17.416Z,1.3786
2023-04-25T08:29:25.497Z,1.5857
2023-04-25T08:30:33.536Z,1.5500
2023-04-25T08:31:41.748Z,1.6429
2023-04-25T08:32:49.809Z,1.3357
2023-04-25T08:33:57.955Z,1.4357
2023-04-25T08:35:06.169Z,1.4286
2023-04-25T08:36:17.338Z,1.6071
2023-04-25T08:37:26.872Z,1.5533
2023-04-25T08:38:34.950Z,1.5000
2023-04-25T08:39:42.981Z,1.3357
2023-04-25T08:40:51.102Z,1.2786
2023-04-25T08:41:59.017Z,1.1714
2023-04-25T08:43:07.034Z,1.0929
2023-04-25T08:44:15.099Z,1.3071
2023-04-25T08:45:23.303Z,1.1714
2023-04-25T08:46:31.408Z,1.2286
2023-04-25T08:47:39.423Z,1.4929
2023-04-25T08:48:47.429Z,1.2143
2023-04-25T08:49:55.607Z,1.1786
2023-04-25T08:51:03.606Z,1.4214
2023-04-25T08:52:11.791Z,1.2000
2023-04-25T08:53:19.836Z,1.1286
2023-04-25T08:54:35.747Z,1.2143
2023-04-25T08:55:40.601Z,1.2400
2023-04-25T08:56:48.634Z,1.3429
2023-04-25T08:57:56.615Z,1.3000
2023-04-25T08:59:05.263Z,1.3500
2023-04-25T09:00:12.871Z,1.6500
2023-04-25T09:01:20.911Z,1.6071
2023-04-25T09:02:29.136Z,1.4643
2023-04-25T09:03:37.152Z,1.3286
2023-04-25T09:04:45.052Z,1.3357
2023-04-25T09:05:53.175Z,1.5857
2023-04-25T09:07:01.214Z,1.5429
2023-04-25T09:08:09.389Z,1.3786
2023-04-25T09:09:17.361Z,1.4000
2023-04-25T09:10:25.308Z,1.7286
2023-04-25T09:11:33.364Z,1.4214
2023-04-25T09:12:41.613Z,1.5214
2023-04-25T09:13:49.867Z,1.5500
2023-04-25T09:14:57.643Z,1.5500
2023-04-25T09:16:05.686Z,1.4429
2023-04-25T09:17:13.747Z,1.7143
2023-04-25T09:18:21.957Z,1.7929
2023-04-25T09:19:39.592Z,1.6071
2023-04-25T09:20:59.679Z,1.5267
2023-04-25T09:21:55.561Z,1.7133
2023-04-25T09:23:03.692Z,2.2000
2023-04-25T09:24:11.672Z,2.1714
2023-04-25T09:25:19.866Z,2.1714
2023-04-25T09:26:27.909Z,2.0714
2023-04-25T09:27:35.973Z,1.9643
2023-04-25T09:28:44.177Z,2.0929
2023-04-25T09:29:52.086Z,2.2714
2023-04-25T09:31:00.163Z,2.2071
2023-04-25T09:32:08.229Z,2.1500
2023-04-25T09:33:16.327Z,2.1714
2023-04-25T09:34:24.414Z,2.2429
2023-04-25T09:35:32.398Z,2.3286
2023-04-25T09:36:40.318Z,2.4929
2023-04-25T09:37:48.368Z,2.2571
2023-04-25T09:38:56.397Z,2.3857
2023-04-25T09:40:04.648Z,2.2286
2023-04-25T09:41:12.963Z,1.8571
2023-04-25T09:42:20.659Z,1.7429
2023-04-25T09:43:28.772Z,1.9857
2023-04-25T09:44:36.845Z,1.8714
2023-04-25T09:45:45.002Z,1.7000
2023-04-25T09:46:52.952Z,1.4357
2023-04-25T09:48:01.084Z,1.3000
2023-04-25T09:49:09.051Z,1.1357
2023-04-25T09:50:17.187Z,1.2357
2023-04-25T09:51:25.040Z,1.1214
2023-04-25T09:52:33.104Z,1.0143
2023-04-25T09:53:41.141Z,0.9429
2023-04-25T09:54:49.473Z,1.0071
2023-04-25T09:55:57.436Z,0.9143
2023-04-25T09:57:05.453Z,0.9214
2023-04-25T09:58:13.362Z,0.7857
2023-04-25T09:59:21.558Z,0.8143
2023-04-25T10:00:29.494Z,0.7286
2023-04-25T10:01:37.776Z,0.8429
2023-04-25T10:02:45.815Z,0.7071
2023-04-25T10:03:53.804Z,0.6929
2023-04-25T10:05:02.007Z,0.6857
2023-04-25T10:06:09.764Z,0.7500
2023-04-25T10:07:18.799Z,0.6714
2023-04-25T10:08:25.908Z,0.5929
2023-04-25T10:09:34.064Z,0.6500
2023-04-25T10:10:42.070Z,0.6429
2023-04-25T10:11:50.395Z,0.6500
2023-04-25T10:12:58.287Z,0.5714
2023-04-25T10:14:06.327Z,0.6214
2023-04-25T10:15:14.354Z,0.5786
2023-04-25T10:16:22.574Z,0.6643
2023-04-25T10:17:30.563Z,0.7071
2023-04-25T10:18:38.587Z,0.6643
2023-04-25T10:19:46.617Z,0.7643
2023-04-25T10:20:54.521Z,1.0786
2023-04-25T10:22:02.709Z,0.8214
2023-04-25T10:23:10.659Z,0.7857
2023-04-25T10:24:18.830Z,0.8429
2023-04-25T10:25:27.028Z,0.7857
2023-04-25T10:26:34.938Z,0.8357
2023-04-25T10:27:43.212Z,0.6786
2023-04-25T10:28:51.287Z,0.7143
2023-04-25T10:29:59.150Z,0.6786
2023-04-25T10:31:07.325Z,0.6571
2023-04-25T10:32:15.325Z,0.6214
2023-04-25T10:33:23.370Z,0.5357
2023-04-25T10:34:31.441Z,0.6000
2023-04-25T10:35:39.304Z,0.5571
2023-04-25T10:36:47.368Z,0.5357
2023-04-25T10:37:55.443Z,0.4429
2023-04-25T10:39:03.629Z,0.4786
2023-04-25T10:40:11.690Z,0.4643
2023-04-25T10:41:19.722Z,0.6143
2023-04-25T10:42:27.789Z,0.5929
2023-04-25T10:43:35.829Z,0.5214
2023-04-25T10:44:43.909Z,0.4786
2023-04-25T10:45:51.885Z,0.6500
2023-04-25T10:47:00.050Z,0.6286
2023-04-25T10:48:08.029Z,0.5500
2023-04-25T10:49:16.275Z,0.5143
2023-04-25T10:50:24.081Z,0.4929
2023-04-25T10:51:40.120Z,0.4500
2023-04-25T10:52:45.203Z,0.4600
2023-04-25T10:53:53.345Z,0.4286
2023-04-25T10:55:01.208Z,0.5786
2023-04-25T10:56:10.789Z,0.5857
2023-04-25T10:57:22.216Z,0.5200
2023-04-25T10:58:30.312Z,0.5500
2023-04-25T10:59:38.324Z,0.6214
2023-04-25T11:00:56.948Z,0.6643
2023-04-25T11:01:59.282Z,0.5400
2023-04-25T11:03:07.399Z,0.6429
2023-04-25T11:04:15.469Z,0.4429
2023-04-25T11:05:23.475Z,0.5143
2023-04-25T11:06:31.506Z,0.4929
2023-04-25T11:07:39.478Z,0.4429
2023-04-25T11:08:47.598Z,0.5500
2023-04-25T11:09:55.688Z,0.4571
2023-04-25T11:11:03.708Z,0.4429
2023-04-25T11:12:11.824Z,0.5214
2023-04-25T11:13:19.811Z,0.4643
2023-04-25T11:14:27.879Z,0.4714
2023-04-25T11:15:35.941Z,0.4643
2023-04-25T11:16:43.954Z,0.5286
2023-04-25T11:17:52.040Z,0.5714
2023-04-25T11:19:00.047Z,0.6429
2023-04-25T11:20:08.212Z,0.6786
2023-04-25T11:21:16.382Z,0.6714
2023-04-25T11:22:24.321Z,0.5000
2023-04-25T11:23:32.413Z,0.6071
2023-04-25T11:24:40.374Z,0.5429
2023-04-25T11:25:48.579Z,0.6000
2023-04-25T11:26:56.499Z,0.6643
2023-04-25T11:28:04.758Z,0.6500
2023-04-25T11:29:12.769Z,0.6857
2023-04-25T11:30:20.706Z,0.6643
2023-04-25T11:31:28.714Z,0.6857
2023-04-25T11:32:36.695Z,0.6857
2023-04-25T11:33:44.990Z,0.6500
2023-04-25T11:34:52.885Z,0.6857
2023-04-25T11:36:01.022Z,0.7786
2023-04-25T11:37:09.054Z,0.8714
2023-04-25T11:38:17.101Z,1.1500
2023-04-25T11:39:25.048Z,1.1714
2023-04-25T11:40:33.159Z,0.8571
2023-04-25T11:41:41.672Z,0.7286
2023-04-25T11:42:55.382Z,0.7667
2023-04-25T11:44:02.112Z,0.7500
2023-04-25T11:45:10.241Z,0.7643
2023-04-25T11:46:18.296Z,1.1214
2023-04-25T11:47:26.729Z,0.8643
2023-04-25T11:48:34.488Z,0.7643
2023-04-25T11:49:42.536Z,0.7857
2023-04-25T11:50:50.662Z,0.9857
2023-04-25T11:51:58.851Z,1.1500
2023-04-25T11:53:06.696Z,0.8500
2023-04-25T11:54:14.793Z,0.9143
2023-04-25T11:55:22.856Z,0.8429
2023-04-25T11:56:30.938Z,1.0571
2023-04-25T11:57:38.961Z,0.7786
2023-04-25T11:58:46.852Z,0.7643
2023-04-25T11:59:54.878Z,0.9929
2023-04-25T12:01:03.002Z,6.1500
2023-04-25T12:02:11.206Z,12.2357
2023-04-25T12:03:19.401Z,9.6643
2023-04-25T12:04:27.403Z,6.7071
2023-04-25T12:05:35.511Z,0.9000
2023-04-25T12:06:43.515Z,0.7071
2023-04-25T12:07:51.293Z,0.8071
2023-04-25T12:08:59.412Z,0.9286
2023-04-25T12:10:07.680Z,0.7857
2023-04-25T12:11:15.588Z,0.9857
2023-04-25T12:12:23.719Z,0.8286
2023-04-25T12:13:31.573Z,0.7714
2023-04-25T12:14:39.627Z,0.7143
2023-04-25T12:15:47.708Z,0.8357
2023-04-25T12:16:55.845Z,0.9143
2023-04-25T12:18:03.911Z,0.8929
2023-04-25T12:19:11.937Z,0.8214
2023-04-25T12:20:19.985Z,1.2500
2023-04-25T12:21:28.063Z,0.9786
2023-04-25T12:22:36.302Z,1.1214
2023-04-25T12:23:44.180Z,1.2000
2023-04-25T12:24:52.281Z,0.9571
2023-04-25T12:26:00.359Z,0.8143
2023-04-25T12:27:08.425Z,0.6500
2023-04-25T12:28:16.310Z,0.7286
2023-04-25T12:29:24.964Z,0.8786
2023-04-25T12:30:37.463Z,0.8933
2023-04-25T12:31:45.488Z,0.9571
2023-04-25T12:32:53.569Z,0.8357
2023-04-25T12:34:01.580Z,0.9714
2023-04-25T12:35:09.634Z,1.3571
2023-04-25T12:36:17.682Z,1.2000
2023-04-25T12:37:25.743Z,1.2500
2023-04-25T12:38:33.850Z,1.3071
2023-04-25T12:39:41.812Z,1.4000
2023-04-25T12:40:49.893Z,1.4643
2023-04-25T12:41:57.920Z,1.3000
2023-04-25T12:43:05.884Z,1.2286
2023-04-25T12:44:14.021Z,1.0429
2023-04-25T12:45:22.232Z,0.9286
2023-04-25T12:46:30.132Z,1.0500
2023-04-25T12:47:38.251Z,0.9929
2023-04-25T12:48:46.288Z,0.9357
2023-04-25T12:49:54.394Z,0.8143
2023-04-25T12:51:02.467Z,0.9214
2023-04-25T12:52:10.452Z,0.7786
2023-04-25T12:53:18.540Z,0.7214
2023-04-25T12:54:26.660Z,0.7143
2023-04-25T12:55:34.621Z,0.8286
2023-04-25T12:56:42.582Z,0.8143
2023-04-25T12:57:50.639Z,0.7429
2023-04-25T12:58:58.684Z,0.6929
2023-04-25T13:00:06.933Z,0.7286
2023-04-25T13:01:15.161Z,0.9357
2023-04-25T13:02:23.186Z,0.9286
2023-04-25T13:03:31.257Z,0.7357
2023-04-25T13:04:39.133Z,0.8071
2023-04-25T13:05:47.207Z,0.8143
2023-04-25T13:06:55.279Z,0.7714
2023-04-25T13:08:03.416Z,0.7929
2023-04-25T13:09:11.328Z,0.8571
2023-04-25T13:10:19.393Z,0.7571
2023-04-25T13:11:27.312Z,0.7643
2023-04-25T13:12:35.444Z,0.8357
2023-04-25T13:13:43.401Z,0.8286
2023-04-25T13:14:51.614Z,0.7929
2023-04-25T13:15:59.644Z,0.8214
2023-04-25T13:17:07.927Z,0.9071
2023-04-25T13:18:15.872Z,0.8500
2023-04-25T13:19:23.863Z,0.8857
2023-04-25T13:20:31.971Z,0.9429
2023-04-25T13:21:39.967Z,0.9571
2023-04-25T13:22:48.118Z,0.8214
2023-04-25T13:23:56.065Z,0.8714
2023-04-25T13:25:04.271Z,0.9071
2023-04-25T13:26:12.058Z,1.0357
2023-04-25T13:27:20.123Z,0.8643
2023-04-25T13:28:28.234Z,0.8214
2023-04-25T13:29:36.431Z,0.9786
2023-04-25T13:30:44.449Z,0.9857
2023-04-25T13:31:52.444Z,0.8214
2023-04-25T13:33:00.744Z,0.9714
2023-04-25T13:34:08.664Z,1.0143
2023-04-25T13:35:16.675Z,0.9571
2023-04-25T13:36:24.710Z,0.9357
2023-04-25T13:37:32.749Z,1.0571
2023-04-25T13:38:40.934Z,1.0143
2023-04-25T13:39:48.949Z,0.9000
2023-04-25T13:40:57.266Z,0.8857
2023-04-25T13:42:04.871Z,0.8714
2023-04-25T13:43:12.949Z,0.8714
2023-04-25T13:44:21.109Z,0.8571
2023-04-25T13:45:30.624Z,0.8143
2023-04-25T13:46:47.007Z,0.8000
2023-04-25T13:47:55.056Z,0.7533
2023-04-25T13:49:12.080Z,0.6786
2023-04-25T13:50:15.941Z,0.7667
2023-04-25T13:51:24.071Z,0.9143
2023-04-25T13:52:31.983Z,0.9000
2023-04-25T13:53:40.007Z,0.8071
2023-04-25T13:54:48.104Z,0.7429
2023-04-25T13:55:56.141Z,1.0429
2023-04-25T13:57:04.381Z,0.9929
2023-04-25T13:58:12.408Z,0.9857
2023-04-25T13:59:20.554Z,1.0214
2023-04-25T14:00:28.566Z,0.9714
2023-04-25T14:01:36.693Z,0.9643
2023-04-25T14:02:44.621Z,0.9786
2023-04-25T14:03:52.934Z,1.0071
2023-04-25T14:05:00.732Z,0.9929
2023-04-25T14:06:08.717Z,0.8357
2023-04-25T14:07:16.824Z,0.9643
2023-04-25T14:08:24.755Z,1.0643
2023-04-25T14:09:32.806Z,1.0071
2023-04-25T14:10:41.032Z,1.0714